sensor_id;sensor_type;location;lat;lon;timestamp;P1;durP1;ratioP1;P2;durP2;ratioP2
48375;SDS011;34178;50.904;11.560;2023-06-04T00:00:43;4.95;;;1.90;;
48375;SDS011;34178;50.904;11.560;2023-06-04T00:03:08;6.15;;;2.25;;
48375;SDS011;34178;50.904;11.560;2023-06-04T00:05:34;6.10;;;1.90;;
48375;SDS011;34178;50.904;11.560;2023-06-04T00:08:00;4.82;;;2.15;;
48375;SDS011;34178;50.904;11.560;2023-06-04T00:10:26;10.63;;;2.30;;
48375;SDS011;34178;50.904;11.560;2023-06-04T00:12:51;7.78;;;2.05;;
48375;SDS011;34178;50.904;11.560;2023-06-04T00:15:17;4.78;;;2.20;;
48375;SDS011;34178;50.904;11.560;2023-06-04T00:17:43;5.97;;;2.05;;
48375;SDS011;34178;50.904;11.560;2023-06-04T00:20:09;9.63;;;2.25;;
48375;SDS011;34178;50.904;11.560;2023-06-04T00:22:35;6.75;;;2.08;;
48375;SDS011;34178;50.904;11.560;2023-06-04T00:25:01;4.57;;;2.45;;
48375;SDS011;34178;50.904;11.560;2023-06-04T00:27:28;8.20;;;2.38;;
48375;SDS011;34178;50.904;11.560;2023-06-04T00:29:54;11.10;;;2.60;;
48375;SDS011;34178;50.904;11.560;2023-06-04T00:32:20;5.55;;;2.30;;
48375;SDS011;34178;50.904;11.560;2023-06-04T00:34:53;7.85;;;2.60;;
48375;SDS011;34178;50.904;11.560;2023-06-04T00:37:21;4.32;;;1.80;;
48375;SDS011;34178;50.904;11.560;2023-06-04T00:39:47;7.18;;;1.90;;
48375;SDS011;34178;50.904;11.560;2023-06-04T00:42:13;4.60;;;1.95;;
48375;SDS011;34178;50.904;11.560;2023-06-04T00:44:39;11.23;;;2.60;;
48375;SDS011;34178;50.904;11.560;2023-06-04T00:47:10;7.32;;;2.28;;
48375;SDS011;34178;50.904;11.560;2023-06-04T00:49:39;9.50;;;2.70;;
48375;SDS011;34178;50.904;11.560;2023-06-04T00:52:06;4.97;;;2.10;;
48375;SDS011;34178;50.904;11.560;2023-06-04T00:54:33;11.30;;;2.47;;
48375;SDS011;34178;50.904;11.560;2023-06-04T00:57:00;5.32;;;2.67;;
48375;SDS011;34178;50.904;11.560;2023-06-04T00:59:26;4.53;;;2.13;;
48375;SDS011;34178;50.904;11.560;2023-06-04T01:07:27;5.03;;;1.83;;
48375;SDS011;34178;50.904;11.560;2023-06-04T01:09:55;7.78;;;2.22;;
48375;SDS011;34178;50.904;11.560;2023-06-04T01:12:21;6.20;;;2.42;;
48375;SDS011;34178;50.904;11.560;2023-06-04T01:14:47;5.00;;;2.33;;
48375;SDS011;34178;50.904;11.560;2023-06-04T01:17:20;7.88;;;2.00;;
48375;SDS011;34178;50.904;11.560;2023-06-04T01:28:07;5.70;;;2.03;;
48375;SDS011;34178;50.904;11.560;2023-06-04T01:30:36;5.68;;;2.22;;
48375;SDS011;34178;50.904;11.560;2023-06-04T01:33:11;5.03;;;1.88;;
48375;SDS011;34178;50.904;11.560;2023-06-04T01:35:39;8.88;;;2.60;;
48375;SDS011;34178;50.904;11.560;2023-06-04T01:38:05;6.30;;;2.50;;
48375;SDS011;34178;50.904;11.560;2023-06-04T01:40:31;4.57;;;2.33;;
48375;SDS011;34178;50.904;11.560;2023-06-04T01:42:57;7.00;;;2.40;;
48375;SDS011;34178;50.904;11.560;2023-06-04T01:45:25;6.38;;;2.00;;
48375;SDS011;34178;50.904;11.560;2023-06-04T01:47:52;7.03;;;1.90;;
48375;SDS011;34178;50.904;11.560;2023-06-04T01:50:18;5.22;;;2.05;;
48375;SDS011;34178;50.904;11.560;2023-06-04T01:52:45;5.25;;;2.15;;
48375;SDS011;34178;50.904;11.560;2023-06-04T01:55:11;5.97;;;2.00;;
48375;SDS011;34178;50.904;11.560;2023-06-04T01:57:40;5.85;;;2.10;;
48375;SDS011;34178;50.904;11.560;2023-06-04T02:00:07;7.18;;;1.80;;
48375;SDS011;34178;50.904;11.560;2023-06-04T02:02:35;6.03;;;1.95;;
48375;SDS011;34178;50.904;11.560;2023-06-04T02:05:02;5.28;;;2.35;;
48375;SDS011;34178;50.904;11.560;2023-06-04T02:07:29;5.68;;;2.30;;
48375;SDS011;34178;50.904;11.560;2023-06-04T02:09:56;7.35;;;2.05;;
48375;SDS011;34178;50.904;11.560;2023-06-04T02:12:22;6.80;;;2.20;;
48375;SDS011;34178;50.904;11.560;2023-06-04T02:14:47;8.82;;;2.20;;
48375;SDS011;34178;50.904;11.560;2023-06-04T02:17:13;6.53;;;2.35;;
48375;SDS011;34178;50.904;11.560;2023-06-04T02:19:41;5.88;;;2.42;;
48375;SDS011;34178;50.904;11.560;2023-06-04T02:22:18;5.05;;;2.15;;
48375;SDS011;34178;50.904;11.560;2023-06-04T02:24:45;7.15;;;2.72;;
48375;SDS011;34178;50.904;11.560;2023-06-04T02:27:12;10.60;;;2.90;;
48375;SDS011;34178;50.904;11.560;2023-06-04T02:29:39;5.28;;;2.47;;
48375;SDS011;34178;50.904;11.560;2023-06-04T02:32:05;8.93;;;2.42;;
48375;SDS011;34178;50.904;11.560;2023-06-04T02:34:31;7.05;;;2.30;;
48375;SDS011;34178;50.904;11.560;2023-06-04T02:36:59;5.82;;;2.15;;
48375;SDS011;34178;50.904;11.560;2023-06-04T02:39:25;5.63;;;2.20;;
48375;SDS011;34178;50.904;11.560;2023-06-04T02:41:50;7.18;;;2.40;;
48375;SDS011;34178;50.904;11.560;2023-06-04T02:44:16;6.60;;;2.50;;
48375;SDS011;34178;50.904;11.560;2023-06-04T02:46:42;6.93;;;2.67;;
48375;SDS011;34178;50.904;11.560;2023-06-04T02:49:09;8.73;;;2.90;;
48375;SDS011;34178;50.904;11.560;2023-06-04T02:51:38;5.67;;;3.00;;
48375;SDS011;34178;50.904;11.560;2023-06-04T02:54:07;8.18;;;2.97;;
48375;SDS011;34178;50.904;11.560;2023-06-04T02:56:33;5.70;;;2.70;;
48375;SDS011;34178;50.904;11.560;2023-06-04T02:59:01;7.07;;;2.72;;
48375;SDS011;34178;50.904;11.560;2023-06-04T03:01:27;6.25;;;2.83;;
48375;SDS011;34178;50.904;11.560;2023-06-04T03:03:53;6.00;;;2.53;;
48375;SDS011;34178;50.904;11.560;2023-06-04T03:06:20;8.30;;;2.72;;
48375;SDS011;34178;50.904;11.560;2023-06-04T03:08:47;5.97;;;2.80;;
48375;SDS011;34178;50.904;11.560;2023-06-04T03:11:13;6.70;;;3.17;;
48375;SDS011;34178;50.904;11.560;2023-06-04T03:13:39;6.53;;;2.70;;
48375;SDS011;34178;50.904;11.560;2023-06-04T03:16:05;6.40;;;2.70;;
48375;SDS011;34178;50.904;11.560;2023-06-04T03:18:37;7.53;;;2.58;;
48375;SDS011;34178;50.904;11.560;2023-06-04T03:21:07;6.75;;;2.60;;
48375;SDS011;34178;50.904;11.560;2023-06-04T03:23:34;6.25;;;2.30;;
48375;SDS011;34178;50.904;11.560;2023-06-04T03:26:03;6.28;;;2.13;;
48375;SDS011;34178;50.904;11.560;2023-06-04T03:28:30;6.45;;;2.60;;
48375;SDS011;34178;50.904;11.560;2023-06-04T03:30:56;8.00;;;2.72;;
48375;SDS011;34178;50.904;11.560;2023-06-04T03:33:22;5.25;;;2.30;;
48375;SDS011;34178;50.904;11.560;2023-06-04T03:35:48;8.60;;;2.42;;
48375;SDS011;34178;50.904;11.560;2023-06-04T03:38:14;5.15;;;2.30;;
48375;SDS011;34178;50.904;11.560;2023-06-04T03:40:42;5.55;;;2.08;;
48375;SDS011;34178;50.904;11.560;2023-06-04T03:43:09;4.80;;;1.98;;
48375;SDS011;34178;50.904;11.560;2023-06-04T03:45:35;5.10;;;2.22;;
48375;SDS011;34178;50.904;11.560;2023-06-04T03:48:01;11.60;;;2.10;;
48375;SDS011;34178;50.904;11.560;2023-06-04T03:50:26;6.75;;;2.10;;
48375;SDS011;34178;50.904;11.560;2023-06-04T03:52:52;5.55;;;2.15;;
48375;SDS011;34178;50.904;11.560;2023-06-04T03:55:18;6.90;;;2.38;;
48375;SDS011;34178;50.904;11.560;2023-06-04T03:57:44;5.15;;;1.95;;
48375;SDS011;34178;50.904;11.560;2023-06-04T04:00:10;7.10;;;2.50;;
48375;SDS011;34178;50.904;11.560;2023-06-04T04:02:38;6.25;;;2.47;;
48375;SDS011;34178;50.904;11.560;2023-06-04T04:05:07;4.93;;;2.22;;
48375;SDS011;34178;50.904;11.560;2023-06-04T04:07:34;7.47;;;2.00;;
48375;SDS011;34178;50.904;11.560;2023-06-04T04:10:00;8.25;;;2.20;;
48375;SDS011;34178;50.904;11.560;2023-06-04T04:12:26;6.53;;;2.10;;
48375;SDS011;34178;50.904;11.560;2023-06-04T04:14:52;10.45;;;2.25;;
48375;SDS011;34178;50.904;11.560;2023-06-04T04:17:17;5.82;;;1.88;;
48375;SDS011;34178;50.904;11.560;2023-06-04T04:19:43;4.68;;;2.30;;
48375;SDS011;34178;50.904;11.560;2023-06-04T04:22:12;5.00;;;2.15;;
48375;SDS011;34178;50.904;11.560;2023-06-04T04:24:38;4.88;;;2.17;;
48375;SDS011;34178;50.904;11.560;2023-06-04T04:27:04;8.93;;;2.55;;
48375;SDS011;34178;50.904;11.560;2023-06-04T04:29:30;6.47;;;2.30;;
48375;SDS011;34178;50.904;11.560;2023-06-04T04:31:59;4.90;;;2.03;;
48375;SDS011;34178;50.904;11.560;2023-06-04T04:34:26;4.68;;;2.25;;
48375;SDS011;34178;50.904;11.560;2023-06-04T04:36:52;6.05;;;2.38;;
48375;SDS011;34178;50.904;11.560;2023-06-04T04:39:20;5.30;;;2.58;;
48375;SDS011;34178;50.904;11.560;2023-06-04T04:44:15;5.68;;;2.30;;
48375;SDS011;34178;50.904;11.560;2023-06-04T04:46:41;6.25;;;2.42;;
48375;SDS011;34178;50.904;11.560;2023-06-04T04:49:06;8.73;;;3.13;;
48375;SDS011;34178;50.904;11.560;2023-06-04T04:51:32;11.32;;;3.28;;
48375;SDS011;34178;50.904;11.560;2023-06-04T04:53:58;8.50;;;3.88;;
48375;SDS011;34178;50.904;11.560;2023-06-04T04:56:27;9.40;;;3.75;;
48375;SDS011;34178;50.904;11.560;2023-06-04T04:58:53;9.23;;;3.90;;
48375;SDS011;34178;50.904;11.560;2023-06-04T05:01:20;7.80;;;3.53;;
48375;SDS011;34178;50.904;11.560;2023-06-04T05:03:46;7.55;;;3.63;;
48375;SDS011;34178;50.904;11.560;2023-06-04T05:06:12;7.45;;;3.67;;
48375;SDS011;34178;50.904;11.560;2023-06-04T05:08:38;7.82;;;3.67;;
48375;SDS011;34178;50.904;11.560;2023-06-04T05:11:03;7.57;;;3.75;;
48375;SDS011;34178;50.904;11.560;2023-06-04T05:13:29;7.15;;;3.45;;
48375;SDS011;34178;50.904;11.560;2023-06-04T05:15:54;7.65;;;3.70;;
48375;SDS011;34178;50.904;11.560;2023-06-04T05:18:21;8.45;;;3.58;;
48375;SDS011;34178;50.904;11.560;2023-06-04T05:20:57;12.55;;;3.75;;
48375;SDS011;34178;50.904;11.560;2023-06-04T05:23:24;7.55;;;3.35;;
48375;SDS011;34178;50.904;11.560;2023-06-04T05:25:51;10.60;;;3.53;;
48375;SDS011;34178;50.904;11.560;2023-06-04T05:28:17;8.35;;;3.58;;
48375;SDS011;34178;50.904;11.560;2023-06-04T05:30:43;5.97;;;3.20;;
48375;SDS011;34178;50.904;11.560;2023-06-04T05:33:09;8.18;;;3.95;;
48375;SDS011;34178;50.904;11.560;2023-06-04T05:35:42;8.35;;;3.40;;
48375;SDS011;34178;50.904;11.560;2023-06-04T05:38:11;6.90;;;3.42;;
48375;SDS011;34178;50.904;11.560;2023-06-04T05:40:42;7.25;;;4.15;;
48375;SDS011;34178;50.904;11.560;2023-06-04T05:43:08;8.45;;;3.80;;
48375;SDS011;34178;50.904;11.560;2023-06-04T05:45:33;7.18;;;3.45;;
48375;SDS011;34178;50.904;11.560;2023-06-04T05:47:59;10.10;;;3.50;;
48375;SDS011;34178;50.904;11.560;2023-06-04T05:50:25;6.78;;;3.10;;
48375;SDS011;34178;50.904;11.560;2023-06-04T05:52:50;8.35;;;3.97;;
48375;SDS011;34178;50.904;11.560;2023-06-04T05:55:16;8.05;;;3.40;;
48375;SDS011;34178;50.904;11.560;2023-06-04T05:57:42;7.00;;;3.22;;
48375;SDS011;34178;50.904;11.560;2023-06-04T06:00:07;9.05;;;3.75;;
48375;SDS011;34178;50.904;11.560;2023-06-04T06:02:34;8.05;;;3.67;;
48375;SDS011;34178;50.904;11.560;2023-06-04T06:05:00;8.82;;;3.58;;
48375;SDS011;34178;50.904;11.560;2023-06-04T06:07:26;6.55;;;2.97;;
48375;SDS011;34178;50.904;11.560;2023-06-04T06:09:51;7.28;;;3.50;;
48375;SDS011;34178;50.904;11.560;2023-06-04T06:12:17;6.82;;;3.30;;
48375;SDS011;34178;50.904;11.560;2023-06-04T06:14:43;7.07;;;3.00;;
48375;SDS011;34178;50.904;11.560;2023-06-04T06:17:08;9.35;;;4.00;;
48375;SDS011;34178;50.904;11.560;2023-06-04T06:19:35;7.03;;;4.00;;
48375;SDS011;34178;50.904;11.560;2023-06-04T06:22:01;9.07;;;3.95;;
48375;SDS011;34178;50.904;11.560;2023-06-04T06:24:28;9.52;;;4.45;;
48375;SDS011;34178;50.904;11.560;2023-06-04T06:26:54;12.90;;;4.47;;
48375;SDS011;34178;50.904;11.560;2023-06-04T06:29:20;10.80;;;4.22;;
48375;SDS011;34178;50.904;11.560;2023-06-04T06:31:46;11.25;;;4.53;;
48375;SDS011;34178;50.904;11.560;2023-06-04T06:34:11;7.80;;;3.92;;
48375;SDS011;34178;50.904;11.560;2023-06-04T06:36:37;8.40;;;3.70;;
48375;SDS011;34178;50.904;11.560;2023-06-04T06:39:03;9.98;;;3.95;;
48375;SDS011;34178;50.904;11.560;2023-06-04T06:41:29;7.65;;;3.97;;
48375;SDS011;34178;50.904;11.560;2023-06-04T06:43:56;7.85;;;3.97;;
48375;SDS011;34178;50.904;11.560;2023-06-04T06:46:22;7.40;;;3.72;;
48375;SDS011;34178;50.904;11.560;2023-06-04T06:48:48;7.95;;;3.72;;
48375;SDS011;34178;50.904;11.560;2023-06-04T06:51:14;8.27;;;3.53;;
48375;SDS011;34178;50.904;11.560;2023-06-04T06:53:40;7.45;;;3.45;;
48375;SDS011;34178;50.904;11.560;2023-06-04T06:56:06;9.70;;;3.42;;
48375;SDS011;34178;50.904;11.560;2023-06-04T06:58:31;7.80;;;3.50;;
48375;SDS011;34178;50.904;11.560;2023-06-04T07:00:57;6.75;;;3.10;;
48375;SDS011;34178;50.904;11.560;2023-06-04T07:03:23;7.88;;;3.28;;
48375;SDS011;34178;50.904;11.560;2023-06-04T07:05:48;6.88;;;3.03;;
48375;SDS011;34178;50.904;11.560;2023-06-04T07:08:14;6.30;;;3.03;;
48375;SDS011;34178;50.904;11.560;2023-06-04T07:10:41;5.70;;;2.92;;
48375;SDS011;34178;50.904;11.560;2023-06-04T07:13:06;9.13;;;3.22;;
48375;SDS011;34178;50.904;11.560;2023-06-04T07:15:32;8.05;;;3.30;;
48375;SDS011;34178;50.904;11.560;2023-06-04T07:17:58;6.47;;;2.60;;
48375;SDS011;34178;50.904;11.560;2023-06-04T07:20:23;8.23;;;2.72;;
48375;SDS011;34178;50.904;11.560;2023-06-04T07:22:49;7.20;;;2.60;;
48375;SDS011;34178;50.904;11.560;2023-06-04T07:25:15;6.38;;;2.35;;
48375;SDS011;34178;50.904;11.560;2023-06-04T07:27:40;7.05;;;2.80;;
48375;SDS011;34178;50.904;11.560;2023-06-04T07:30:06;6.25;;;2.47;;
48375;SDS011;34178;50.904;11.560;2023-06-04T07:32:34;8.15;;;2.72;;
48375;SDS011;34178;50.904;11.560;2023-06-04T07:34:59;6.95;;;2.40;;
48375;SDS011;34178;50.904;11.560;2023-06-04T07:37:25;6.32;;;2.53;;
48375;SDS011;34178;50.904;11.560;2023-06-04T07:39:51;6.32;;;2.63;;
48375;SDS011;34178;50.904;11.560;2023-06-04T07:42:17;7.50;;;2.90;;
48375;SDS011;34178;50.904;11.560;2023-06-04T07:44:42;6.43;;;2.30;;
48375;SDS011;34178;50.904;11.560;2023-06-04T07:47:08;6.55;;;2.13;;
48375;SDS011;34178;50.904;11.560;2023-06-04T07:49:34;6.35;;;2.33;;
48375;SDS011;34178;50.904;11.560;2023-06-04T07:52:00;5.30;;;2.22;;
48375;SDS011;34178;50.904;11.560;2023-06-04T07:54:26;5.53;;;2.33;;
48375;SDS011;34178;50.904;11.560;2023-06-04T07:56:51;6.78;;;2.60;;
48375;SDS011;34178;50.904;11.560;2023-06-04T07:59:21;5.35;;;2.33;;
48375;SDS011;34178;50.904;11.560;2023-06-04T08:01:47;5.45;;;2.00;;
48375;SDS011;34178;50.904;11.560;2023-06-04T08:04:14;4.80;;;1.88;;
48375;SDS011;34178;50.904;11.560;2023-06-04T08:06:40;5.68;;;2.00;;
48375;SDS011;34178;50.904;11.560;2023-06-04T08:09:07;5.40;;;2.05;;
48375;SDS011;34178;50.904;11.560;2023-06-04T08:11:35;7.25;;;2.25;;
48375;SDS011;34178;50.904;11.560;2023-06-04T08:14:01;6.72;;;1.98;;
48375;SDS011;34178;50.904;11.560;2023-06-04T08:16:26;5.32;;;1.85;;
48375;SDS011;34178;50.904;11.560;2023-06-04T08:18:52;4.22;;;1.80;;
48375;SDS011;34178;50.904;11.560;2023-06-04T08:21:27;6.30;;;2.20;;
48375;SDS011;34178;50.904;11.560;2023-06-04T08:23:53;4.15;;;1.92;;
48375;SDS011;34178;50.904;11.560;2023-06-04T08:26:20;7.30;;;1.83;;
48375;SDS011;34178;50.904;11.560;2023-06-04T08:28:50;4.13;;;1.77;;
48375;SDS011;34178;50.904;11.560;2023-06-04T08:31:16;4.63;;;1.63;;
48375;SDS011;34178;50.904;11.560;2023-06-04T08:33:42;4.32;;;1.65;;
48375;SDS011;34178;50.904;11.560;2023-06-04T08:36:09;5.93;;;1.77;;
48375;SDS011;34178;50.904;11.560;2023-06-04T08:38:35;4.45;;;1.48;;
48375;SDS011;34178;50.904;11.560;2023-06-04T08:41:13;8.13;;;1.80;;
48375;SDS011;34178;50.904;11.560;2023-06-04T08:43:46;3.88;;;1.60;;
48375;SDS011;34178;50.904;11.560;2023-06-04T08:46:15;4.05;;;1.52;;
48375;SDS011;34178;50.904;11.560;2023-06-04T08:48:42;5.05;;;1.70;;
48375;SDS011;34178;50.904;11.560;2023-06-04T08:51:08;5.60;;;1.55;;
48375;SDS011;34178;50.904;11.560;2023-06-04T08:53:36;4.70;;;1.52;;
48375;SDS011;34178;50.904;11.560;2023-06-04T08:56:02;4.95;;;1.70;;
48375;SDS011;34178;50.904;11.560;2023-06-04T08:58:31;5.60;;;1.75;;
48375;SDS011;34178;50.904;11.560;2023-06-04T09:01:00;3.42;;;1.13;;
48375;SDS011;34178;50.904;11.560;2023-06-04T09:03:27;3.65;;;1.50;;
48375;SDS011;34178;50.904;11.560;2023-06-04T09:05:57;3.78;;;1.33;;
48375;SDS011;34178;50.904;11.560;2023-06-04T09:08:24;5.65;;;1.42;;
48375;SDS011;34178;50.904;11.560;2023-06-04T09:10:53;7.25;;;1.50;;
48375;SDS011;34178;50.904;11.560;2023-06-04T09:13:21;5.55;;;1.60;;
48375;SDS011;34178;50.904;11.560;2023-06-04T09:15:58;4.25;;;1.40;;
48375;SDS011;34178;50.904;11.560;2023-06-04T09:18:28;4.00;;;1.40;;
48375;SDS011;34178;50.904;11.560;2023-06-04T09:21:07;4.03;;;1.30;;
48375;SDS011;34178;50.904;11.560;2023-06-04T09:23:54;3.05;;;1.50;;
48375;SDS011;34178;50.904;11.560;2023-06-04T09:26:19;5.70;;;1.23;;
48375;SDS011;34178;50.904;11.560;2023-06-04T09:28:46;5.32;;;1.50;;
48375;SDS011;34178;50.904;11.560;2023-06-04T09:31:15;4.93;;;1.30;;
48375;SDS011;34178;50.904;11.560;2023-06-04T09:33:44;7.53;;;1.50;;
48375;SDS011;34178;50.904;11.560;2023-06-04T09:36:11;3.95;;;1.40;;
48375;SDS011;34178;50.904;11.560;2023-06-04T09:38:37;9.07;;;1.90;;
48375;SDS011;34178;50.904;11.560;2023-06-04T09:41:03;4.05;;;1.27;;
48375;SDS011;34178;50.904;11.560;2023-06-04T09:43:30;5.43;;;1.77;;
48375;SDS011;34178;50.904;11.560;2023-06-04T09:46:07;8.10;;;1.98;;
48375;SDS011;34178;50.904;11.560;2023-06-04T09:48:37;3.87;;;1.27;;
48375;SDS011;34178;50.904;11.560;2023-06-04T09:51:11;5.95;;;1.75;;
48375;SDS011;34178;50.904;11.560;2023-06-04T09:53:43;5.65;;;1.60;;
48375;SDS011;34178;50.904;11.560;2023-06-04T09:56:22;2.63;;;1.30;;
48375;SDS011;34178;50.904;11.560;2023-06-04T09:58:48;2.95;;;1.23;;
48375;SDS011;34178;50.904;11.560;2023-06-04T10:01:18;2.47;;;1.30;;
48375;SDS011;34178;50.904;11.560;2023-06-04T10:03:46;6.35;;;1.58;;
48375;SDS011;34178;50.904;11.560;2023-06-04T10:06:16;5.45;;;1.70;;
48375;SDS011;34178;50.904;11.560;2023-06-04T10:08:45;4.72;;;1.80;;
48375;SDS011;34178;50.904;11.560;2023-06-04T10:11:13;3.38;;;1.40;;
48375;SDS011;34178;50.904;11.560;2023-06-04T10:16:36;4.32;;;1.65;;
48375;SDS011;34178;50.904;11.560;2023-06-04T10:19:04;6.78;;;1.88;;
48375;SDS011;34178;50.904;11.560;2023-06-04T10:21:32;4.47;;;1.65;;
48375;SDS011;34178;50.904;11.560;2023-06-04T10:24:00;5.78;;;1.52;;
48375;SDS011;34178;50.904;11.560;2023-06-04T10:26:25;6.03;;;1.90;;
48375;SDS011;34178;50.904;11.560;2023-06-04T10:28:52;6.18;;;1.55;;
48375;SDS011;34178;50.904;11.560;2023-06-04T10:31:19;4.15;;;2.13;;
48375;SDS011;34178;50.904;11.560;2023-06-04T10:33:44;5.82;;;2.22;;
48375;SDS011;34178;50.904;11.560;2023-06-04T10:36:17;8.35;;;2.00;;
48375;SDS011;34178;50.904;11.560;2023-06-04T10:38:53;6.90;;;2.00;;
48375;SDS011;34178;50.904;11.560;2023-06-04T10:41:21;5.70;;;2.47;;
48375;SDS011;34178;50.904;11.560;2023-06-04T10:43:51;6.50;;;2.03;;
48375;SDS011;34178;50.904;11.560;2023-06-04T10:46:25;4.20;;;1.83;;
48375;SDS011;34178;50.904;11.560;2023-06-04T10:48:52;8.35;;;1.90;;
48375;SDS011;34178;50.904;11.560;2023-06-04T10:51:33;5.10;;;1.80;;
48375;SDS011;34178;50.904;11.560;2023-06-04T10:54:02;12.27;;;2.40;;
48375;SDS011;34178;50.904;11.560;2023-06-04T10:56:29;6.05;;;1.88;;
48375;SDS011;34178;50.904;11.560;2023-06-04T10:59:00;9.15;;;2.17;;
48375;SDS011;34178;50.904;11.560;2023-06-04T11:01:37;4.15;;;1.80;;
48375;SDS011;34178;50.904;11.560;2023-06-04T11:04:03;5.47;;;2.10;;
48375;SDS011;34178;50.904;11.560;2023-06-04T11:06:29;6.63;;;1.60;;
48375;SDS011;34178;50.904;11.560;2023-06-04T11:09:02;5.38;;;1.80;;
48375;SDS011;34178;50.904;11.560;2023-06-04T11:11:31;5.72;;;1.52;;
48375;SDS011;34178;50.904;11.560;2023-06-04T11:14:09;6.35;;;1.67;;
48375;SDS011;34178;50.904;11.560;2023-06-04T11:16:38;4.10;;;1.80;;
48375;SDS011;34178;50.904;11.560;2023-06-04T11:19:04;5.45;;;1.90;;
48375;SDS011;34178;50.904;11.560;2023-06-04T11:21:30;4.68;;;1.73;;
48375;SDS011;34178;50.904;11.560;2023-06-04T11:23:59;5.35;;;1.70;;
48375;SDS011;34178;50.904;11.560;2023-06-04T11:26:34;3.72;;;1.77;;
48375;SDS011;34178;50.904;11.560;2023-06-04T11:29:02;5.93;;;1.80;;
48375;SDS011;34178;50.904;11.560;2023-06-04T11:34:10;5.32;;;1.67;;
48375;SDS011;34178;50.904;11.560;2023-06-04T11:36:46;3.30;;;1.60;;
48375;SDS011;34178;50.904;11.560;2023-06-04T11:39:14;2.90;;;1.70;;
48375;SDS011;34178;50.904;11.560;2023-06-04T11:41:40;4.32;;;1.90;;
48375;SDS011;34178;50.904;11.560;2023-06-04T11:44:07;4.63;;;1.83;;
48375;SDS011;34178;50.904;11.560;2023-06-04T11:46:34;5.45;;;1.75;;
48375;SDS011;34178;50.904;11.560;2023-06-04T11:49:00;4.13;;;1.90;;
48375;SDS011;34178;50.904;11.560;2023-06-04T11:51:27;6.38;;;1.83;;
48375;SDS011;34178;50.904;11.560;2023-06-04T11:53:53;4.47;;;1.63;;
48375;SDS011;34178;50.904;11.560;2023-06-04T11:56:20;4.93;;;1.92;;
48375;SDS011;34178;50.904;11.560;2023-06-04T11:58:46;3.67;;;1.50;;
48375;SDS011;34178;50.904;11.560;2023-06-04T12:01:15;5.40;;;2.10;;
48375;SDS011;34178;50.904;11.560;2023-06-04T12:03:41;5.45;;;2.13;;
48375;SDS011;34178;50.904;11.560;2023-06-04T12:06:17;8.23;;;1.90;;
48375;SDS011;34178;50.904;11.560;2023-06-04T12:08:48;5.32;;;1.90;;
48375;SDS011;34178;50.904;11.560;2023-06-04T12:14:05;5.43;;;1.90;;
48375;SDS011;34178;50.904;11.560;2023-06-04T12:16:32;5.43;;;2.05;;
48375;SDS011;34178;50.904;11.560;2023-06-04T12:19:08;3.58;;;1.85;;
48375;SDS011;34178;50.904;11.560;2023-06-04T12:21:35;3.65;;;1.58;;
48375;SDS011;34178;50.904;11.560;2023-06-04T12:26:33;4.07;;;1.63;;
48375;SDS011;34178;50.904;11.560;2023-06-04T12:29:12;4.65;;;1.70;;
48375;SDS011;34178;50.904;11.560;2023-06-04T12:31:39;4.88;;;1.75;;
48375;SDS011;34178;50.904;11.560;2023-06-04T12:34:06;5.55;;;2.00;;
48375;SDS011;34178;50.904;11.560;2023-06-04T12:36:32;5.95;;;1.75;;
48375;SDS011;34178;50.904;11.560;2023-06-04T12:39:04;5.23;;;1.77;;
48375;SDS011;34178;50.904;11.560;2023-06-04T12:41:32;6.18;;;1.77;;
48375;SDS011;34178;50.904;11.560;2023-06-04T12:43:58;4.43;;;1.80;;
48375;SDS011;34178;50.904;11.560;2023-06-04T12:46:25;3.70;;;1.70;;
48375;SDS011;34178;50.904;11.560;2023-06-04T12:48:52;3.85;;;1.90;;
48375;SDS011;34178;50.904;11.560;2023-06-04T12:51:19;3.67;;;1.65;;
48375;SDS011;34178;50.904;11.560;2023-06-04T12:53:46;4.25;;;1.67;;
48375;SDS011;34178;50.904;11.560;2023-06-04T12:56:12;5.75;;;1.90;;
48375;SDS011;34178;50.904;11.560;2023-06-04T12:58:38;5.03;;;1.60;;
48375;SDS011;34178;50.904;11.560;2023-06-04T13:01:04;2.80;;;1.48;;
48375;SDS011;34178;50.904;11.560;2023-06-04T13:03:30;2.65;;;1.50;;
48375;SDS011;34178;50.904;11.560;2023-06-04T13:05:56;4.03;;;1.30;;
48375;SDS011;34178;50.904;11.560;2023-06-04T13:08:22;4.03;;;1.58;;
48375;SDS011;34178;50.904;11.560;2023-06-04T13:10:49;3.40;;;1.50;;
48375;SDS011;34178;50.904;11.560;2023-06-04T13:13:16;6.43;;;1.80;;
48375;SDS011;34178;50.904;11.560;2023-06-04T13:15:42;3.65;;;1.50;;
48375;SDS011;34178;50.904;11.560;2023-06-04T13:18:08;4.15;;;1.40;;
48375;SDS011;34178;50.904;11.560;2023-06-04T13:20:39;4.43;;;1.42;;
48375;SDS011;34178;50.904;11.560;2023-06-04T13:23:05;3.42;;;1.38;;
48375;SDS011;34178;50.904;11.560;2023-06-04T13:25:32;4.30;;;1.60;;
48375;SDS011;34178;50.904;11.560;2023-06-04T13:28:01;5.88;;;1.45;;
48375;SDS011;34178;50.904;11.560;2023-06-04T13:32:54;3.75;;;1.70;;
48375;SDS011;34178;50.904;11.560;2023-06-04T13:35:20;5.00;;;1.35;;
48375;SDS011;34178;50.904;11.560;2023-06-04T13:37:46;3.58;;;1.30;;
48375;SDS011;34178;50.904;11.560;2023-06-04T13:40:12;3.50;;;1.52;;
48375;SDS011;34178;50.904;11.560;2023-06-04T13:42:38;3.60;;;1.30;;
48375;SDS011;34178;50.904;11.560;2023-06-04T13:45:04;3.53;;;1.10;;
48375;SDS011;34178;50.904;11.560;2023-06-04T13:47:31;3.28;;;1.50;;
48375;SDS011;34178;50.904;11.560;2023-06-04T13:49:57;5.15;;;1.48;;
48375;SDS011;34178;50.904;11.560;2023-06-04T13:52:23;3.67;;;1.17;;
48375;SDS011;34178;50.904;11.560;2023-06-04T13:54:49;2.65;;;1.27;;
48375;SDS011;34178;50.904;11.560;2023-06-04T13:57:16;4.20;;;1.40;;
48375;SDS011;34178;50.904;11.560;2023-06-04T13:59:42;7.13;;;1.33;;
48375;SDS011;34178;50.904;11.560;2023-06-04T14:02:07;3.25;;;1.33;;
48375;SDS011;34178;50.904;11.560;2023-06-04T14:04:33;6.25;;;1.17;;
48375;SDS011;34178;50.904;11.560;2023-06-04T14:06:59;3.80;;;1.40;;
48375;SDS011;34178;50.904;11.560;2023-06-04T14:09:24;2.97;;;1.23;;
48375;SDS011;34178;50.904;11.560;2023-06-04T14:11:50;2.33;;;1.10;;
48375;SDS011;34178;50.904;11.560;2023-06-04T14:14:19;3.03;;;1.20;;
48375;SDS011;34178;50.904;11.560;2023-06-04T14:19:12;4.63;;;1.48;;
48375;SDS011;34178;50.904;11.560;2023-06-04T14:21:37;2.53;;;1.23;;
48375;SDS011;34178;50.904;11.560;2023-06-04T14:24:03;3.25;;;1.45;;
48375;SDS011;34178;50.904;11.560;2023-06-04T14:26:29;3.00;;;1.20;;
48375;SDS011;34178;50.904;11.560;2023-06-04T14:28:55;5.13;;;1.20;;
48375;SDS011;34178;50.904;11.560;2023-06-04T14:31:21;3.67;;;1.50;;
48375;SDS011;34178;50.904;11.560;2023-06-04T14:33:47;3.90;;;1.40;;
48375;SDS011;34178;50.904;11.560;2023-06-04T14:36:13;5.43;;;1.45;;
48375;SDS011;34178;50.904;11.560;2023-06-04T14:38:38;4.82;;;1.58;;
48375;SDS011;34178;50.904;11.560;2023-06-04T14:41:04;2.67;;;1.45;;
48375;SDS011;34178;50.904;11.560;2023-06-04T14:43:30;2.00;;;1.20;;
48375;SDS011;34178;50.904;11.560;2023-06-04T14:45:56;3.20;;;1.30;;
48375;SDS011;34178;50.904;11.560;2023-06-04T14:48:21;5.00;;;1.20;;
48375;SDS011;34178;50.904;11.560;2023-06-04T14:50:47;4.45;;;1.40;;
48375;SDS011;34178;50.904;11.560;2023-06-04T14:53:13;4.32;;;1.63;;
48375;SDS011;34178;50.904;11.560;2023-06-04T14:55:39;3.88;;;1.50;;
48375;SDS011;34178;50.904;11.560;2023-06-04T14:58:05;2.90;;;1.30;;
48375;SDS011;34178;50.904;11.560;2023-06-04T15:00:31;5.82;;;1.42;;
48375;SDS011;34178;50.904;11.560;2023-06-04T15:02:57;3.28;;;1.42;;
48375;SDS011;34178;50.904;11.560;2023-06-04T15:05:24;3.63;;;1.33;;